< < Back
Terminal Aerodrome Forecast


Current Version              Previous Versions:   1  2  3  4  5  6  7  8  9  

Terminal Aerodrome Forecast

596
FTUS42 KFFC 012327
TAFAHN
TAF
KAHN 012327Z 0200/0224 00000KT 2SM BR OVC004
      TEMPO 0200/0204 1SM -DZ BR OVC004
     FM020600 00000KT 4SM -RA OVC006
     FM020800 00000KT 1SM -DZ OVC004
     FM021600 24004KT 4SM -DZ OVC007
     FM022000 27005KT P6SM VCSH BKN012=

Latest METAR

288
SAUS70 KWBC 012300 RRI
MTRAHN
METAR KAHN 012251Z 00000KT 1 3/4SM BR OVC004 06/05 A3041 RMK AO2 SLP303
T00610050 $


USA.gov is the U.S. government's official web portal to all federal, state and local government web resources and services.